Time;durP1;ratioP1;P1;durP2;ratioP2;P2;SDS_P1;SDS_P2;PMS_P1;PMS_P2;Temp;Humidity;BMP_temperature;BMP_pressure;BME280_temperature;BME280_humidity;BME280_pressure;Samples;Min_cycle;Max_cycle;Signal;HPM_P1;HPM_P2
2023/06/30 00:02:06;;;;;;;1.93;1.87;;;19.00;99.90;;;;;;4925784;29;20214;-80
2023/06/30 00:04:32;;;;;;;2.30;2.10;;;18.80;99.90;;;;;;4923854;29;20918;-80
2023/06/30 00:14:02;;;;;;;2.33;2.33;;;18.20;99.90;;;;;;4938995;28;20496;-80
2023/06/30 00:16:28;;;;;;;4.53;2.50;;;18.20;99.90;;;;;;4943995;29;20450;-80
2023/06/30 00:18:55;;;;;;;2.87;2.77;;;18.00;99.90;;;;;;4941505;29;20195;-81
2023/06/30 00:21:21;;;;;;;6.10;3.37;;;18.00;99.90;;;;;;4943604;29;20187;-80
2023/06/30 00:23:46;;;;;;;3.60;3.40;;;17.70;99.90;;;;;;4943627;29;20457;-80
2023/06/30 00:29:34;;;;;;;3.40;3.00;;;17.40;99.90;;;;;;4942406;28;20197;-81
2023/06/30 00:32:00;;;;;;;3.90;3.73;;;17.30;99.90;;;;;;4943280;29;20449;-79
2023/06/30 00:34:25;;;;;;;4.00;3.67;;;17.30;99.90;;;;;;4943313;29;20297;-80
2023/06/30 00:40:14;;;;;;;3.77;3.47;;;17.30;99.90;;;;;;4944713;29;20217;-79
2023/06/30 00:42:40;;;;;;;4.20;4.00;;;17.20;99.90;;;;;;4923663;28;20446;-79
2023/06/30 00:45:06;;;;;;;4.10;3.90;;;17.10;99.90;;;;;;4945150;29;20445;-79
2023/06/30 00:47:35;;;;;;;3.80;3.60;;;17.10;99.90;;;;;;4941444;28;20449;-79
2023/06/30 00:50:02;;;;;;;3.43;3.30;;;17.20;99.90;;;;;;4945052;29;20434;-80
2023/06/30 00:52:27;;;;;;;4.63;4.23;;;17.20;99.90;;;;;;4941825;28;20453;-81
2023/06/30 00:54:53;;;;;;;4.70;4.40;;;17.20;99.90;;;;;;4945005;29;20477;-80
2023/06/30 00:57:19;;;;;;;4.07;3.70;;;17.20;99.90;;;;;;4943651;28;20194;-80
2023/06/30 00:59:44;;;;;;;4.00;3.70;;;17.20;99.90;;;;;;4942711;28;20203;-80
2023/06/30 01:02:18;;;;;;;4.50;4.23;;;17.20;99.90;;;;;;4944516;29;20593;-80
2023/06/30 01:04:47;;;;;;;3.93;3.63;;;17.20;99.90;;;;;;4942651;28;20281;-80
2023/06/30 01:07:51;;;;;;;5.40;4.90;;;17.20;99.90;;;;;;4944530;29;20806;-80
2023/06/30 01:10:25;;;;;;;8.33;3.90;;;17.20;99.90;;;;;;4945080;29;20522;-82
2023/06/30 01:12:51;;;;;;;5.03;4.73;;;17.00;99.90;;;;;;4940849;28;20450;-81
2023/06/30 01:15:17;;;;;;;4.60;4.30;;;17.00;99.90;;;;;;4943896;29;20573;-80
2023/06/30 01:17:52;;;;;;;5.00;4.60;;;16.90;99.90;;;;;;4937024;28;20438;-80
2023/06/30 01:20:19;;;;;;;4.60;4.30;;;16.90;99.90;;;;;;4947386;29;20909;-81
2023/06/30 01:22:54;;;;;;;4.57;4.03;;;16.90;99.90;;;;;;4930682;28;20474;-81
2023/06/30 01:25:27;;;;;;;5.00;4.70;;;16.80;99.90;;;;;;4952304;29;20444;-81
2023/06/30 01:27:54;;;;;;;5.00;4.70;;;16.90;99.90;;;;;;4949382;28;20448;-82
2023/06/30 01:30:21;;;;;;;5.70;4.07;;;16.90;99.90;;;;;;4940626;29;20952;-81
2023/06/30 04:26:05;;;;;;;13.10;4.80;;;16.70;99.90;;;;;;4940533;28;20957;-80
2023/06/30 04:28:31;;;;;;;5.00;4.40;;;16.70;99.90;;;;;;4944821;29;20435;-83
2023/06/30 04:31:03;;;;;;;5.23;4.73;;;16.60;99.90;;;;;;4944614;29;20336;-81
2023/06/30 04:33:28;;;;;;;10.90;5.70;;;16.60;99.90;;;;;;4928532;29;20349;-81
2023/06/30 04:35:54;;;;;;;5.30;5.00;;;16.50;99.90;;;;;;4925144;29;20540;-81
2023/06/30 04:38:20;;;;;;;6.20;5.17;;;16.50;99.90;;;;;;4946589;29;20193;-81
2023/06/30 04:40:46;;;;;;;4.70;4.40;;;16.50;99.90;;;;;;4944166;28;20225;-80
2023/06/30 04:43:12;;;;;;;9.03;4.50;;;16.50;99.90;;;;;;4946743;29;20185;-81
2023/06/30 04:45:42;;;;;;;5.37;4.97;;;16.50;99.90;;;;;;4945423;28;20438;-81
2023/06/30 04:48:07;;;;;;;7.33;5.23;;;16.50;99.90;;;;;;4927820;29;20191;-82
2023/06/30 04:50:34;;;;;;;5.03;4.77;;;16.50;99.90;;;;;;4945611;29;20454;-82
2023/06/30 04:52:59;;;;;;;6.90;4.80;;;16.50;99.90;;;;;;4958851;29;20202;-81
2023/06/30 04:55:25;;;;;;;7.30;4.57;;;16.50;99.90;;;;;;4956778;29;20474;-82
2023/06/30 04:57:53;;;;;;;4.67;4.30;;;16.60;99.90;;;;;;4932965;29;20248;-82
2023/06/30 05:00:19;;;;;;;7.10;4.17;;;16.60;99.90;;;;;;4946673;28;20229;-82
2023/06/30 05:02:44;;;;;;;4.07;3.60;;;16.60;99.90;;;;;;4947078;29;20434;-81
2023/06/30 05:05:10;;;;;;;5.03;3.80;;;16.60;99.90;;;;;;4943090;28;20199;-81
2023/06/30 05:07:36;;;;;;;6.83;4.37;;;16.50;99.90;;;;;;4945168;28;20182;-82
2023/06/30 05:10:01;;;;;;;3.40;3.30;;;16.50;99.90;;;;;;4945140;29;20174;-81
2023/06/30 05:12:27;;;;;;;3.07;2.57;;;16.70;99.90;;;;;;4943278;29;20337;-81
2023/06/30 05:14:52;;;;;;;5.97;3.50;;;16.70;99.90;;;;;;4945064;29;20618;-81
2023/06/30 05:17:18;;;;;;;3.40;3.20;;;16.80;99.90;;;;;;4943656;28;20226;-83
2023/06/30 05:19:43;;;;;;;5.97;3.77;;;16.90;99.90;;;;;;4927683;29;20198;-83
2023/06/30 05:22:09;;;;;;;6.30;3.50;;;16.90;99.90;;;;;;4941727;28;20199;-82
2023/06/30 05:24:34;;;;;;;4.53;3.70;;;16.90;99.90;;;;;;4945214;29;20205;-80
2023/06/30 05:27:01;;;;;;;3.77;3.37;;;16.90;99.90;;;;;;4942993;28;20300;-81
2023/06/30 05:29:29;;;;;;;4.47;3.07;;;16.80;99.90;;;;;;4943975;29;20195;-82
2023/06/30 05:31:55;;;;;;;3.97;3.60;;;16.90;99.90;;;;;;4943933;28;21006;-80
2023/06/30 05:34:20;;;;;;;4.53;4.23;;;16.80;99.90;;;;;;4946731;29;20473;-83
2023/06/30 05:36:46;;;;;;;3.93;3.83;;;17.00;99.90;;;;;;4944263;29;20701;-80
2023/06/30 05:39:12;;;;;;;3.63;3.27;;;17.10;99.90;;;;;;4944858;29;20204;-83
2023/06/30 05:41:40;;;;;;;3.77;3.47;;;17.30;99.90;;;;;;4943283;28;20304;-82
2023/06/30 05:44:09;;;;;;;7.30;2.90;;;17.30;99.90;;;;;;4946175;29;20456;-82
2023/06/30 05:46:37;;;;;;;2.90;2.70;;;17.50;99.90;;;;;;4944594;28;20442;-82
2023/06/30 05:49:05;;;;;;;4.30;3.10;;;17.60;99.90;;;;;;4928645;29;20513;-83
2023/06/30 05:51:34;;;;;;;3.47;3.20;;;17.60;99.90;;;;;;4944126;28;20438;-82
2023/06/30 05:54:04;;;;;;;5.40;3.33;;;17.40;99.90;;;;;;4952204;29;20481;-82
2023/06/30 05:56:30;;;;;;;3.90;3.43;;;17.40;99.90;;;;;;4950243;28;20597;-82
2023/06/30 05:58:57;;;;;;;2.63;2.40;;;17.50;99.90;;;;;;4951198;29;20517;-82
2023/06/30 06:01:23;;;;;;;5.30;3.27;;;17.50;99.90;;;;;;4951557;28;20485;-82
2023/06/30 06:03:49;;;;;;;2.33;2.23;;;17.50;99.90;;;;;;4948700;29;22388;-79
2023/06/30 06:06:15;;;;;;;6.23;3.20;;;17.50;99.90;;;;;;4946157;28;20267;-82
2023/06/30 06:08:44;;;;;;;3.13;2.37;;;17.50;99.90;;;;;;4944498;28;20454;-82
2023/06/30 06:11:09;;;;;;;5.73;3.20;;;18.00;99.90;;;;;;4942866;28;20481;-81
2023/06/30 06:13:37;;;;;;;5.50;2.60;;;18.50;99.90;;;;;;4945862;29;20466;-83
2023/06/30 06:16:04;;;;;;;3.13;2.93;;;19.10;99.90;;;;;;4943931;29;20556;-83
2023/06/30 06:18:30;;;;;;;3.63;2.50;;;19.90;99.90;;;;;;4942579;29;20435;-82
2023/06/30 06:20:56;;;;;;;5.17;2.27;;;20.40;99.90;;;;;;4942446;28;20454;-84
2023/06/30 06:23:22;;;;;;;2.27;2.00;;;20.90;99.90;;;;;;4945008;29;20187;-76
2023/06/30 06:25:48;;;;;;;4.07;2.37;;;21.50;99.90;;;;;;4940251;28;20465;-83
2023/06/30 06:28:14;;;;;;;2.97;2.53;;;21.80;99.90;;;;;;4926963;29;20453;-81
2023/06/30 06:30:40;;;;;;;3.43;2.00;;;22.10;99.90;;;;;;4942148;29;20442;-81
2023/06/30 06:33:05;;;;;;;6.03;2.10;;;22.20;99.90;;;;;;4926471;29;20221;-83
2023/06/30 06:35:32;;;;;;;2.87;2.70;;;22.20;99.90;;;;;;4923884;29;20218;-81
2023/06/30 06:37:58;;;;;;;2.50;2.20;;;22.30;99.90;;;;;;4944118;29;20771;-83
2023/06/30 06:40:24;;;;;;;2.80;2.20;;;22.30;99.90;;;;;;4943670;28;20460;-83
2023/06/30 06:42:50;;;;;;;2.97;2.70;;;22.40;99.90;;;;;;4944283;29;20294;-81
2023/06/30 06:45:15;;;;;;;4.97;2.40;;;22.20;99.90;;;;;;4942919;28;20194;-82
2023/06/30 06:48:17;;;;;;;4.50;2.17;;;22.50;99.90;;;;;;4939824;28;20175;-82
2023/06/30 06:50:43;;;;;;;3.00;2.70;;;22.20;99.90;;;;;;4940590;28;20186;-84
2023/06/30 06:53:08;;;;;;;2.60;2.40;;;22.10;99.90;;;;;;4943698;29;20429;-81
2023/06/30 06:55:35;;;;;;;2.40;2.23;;;21.80;99.90;;;;;;4942828;28;21004;-82
2023/06/30 06:58:00;;;;;;;2.47;2.27;;;21.80;99.90;;;;;;4942886;29;20799;-79
2023/06/30 07:00:26;;;;;;;2.23;1.67;;;22.20;99.90;;;;;;4940223;28;20533;-78
2023/06/30 07:02:52;;;;;;;2.20;2.10;;;22.50;99.90;;;;;;4944612;29;20441;-79
2023/06/30 07:05:18;;;;;;;3.03;2.30;;;23.30;99.30;;;;;;4925824;29;20286;-79
2023/06/30 07:07:44;;;;;;;1.97;1.77;;;23.60;97.40;;;;;;4944728;28;20580;-78
2023/06/30 07:10:10;;;;;;;2.20;2.20;;;23.80;94.70;;;;;;4945080;28;20206;-77
2023/06/30 07:12:35;;;;;;;2.30;2.10;;;23.90;94.10;;;;;;4944688;29;20186;-80
2023/06/30 07:15:01;;;;;;;2.43;2.03;;;24.30;92.60;;;;;;4924847;29;20464;-79
2023/06/30 07:17:26;;;;;;;3.30;1.93;;;24.60;91.90;;;;;;4948367;29;20556;-79
2023/06/30 07:19:52;;;;;;;1.77;1.70;;;25.40;87.80;;;;;;4944947;28;20668;-78
2023/06/30 07:22:17;;;;;;;1.70;1.60;;;25.60;80.40;;;;;;4931741;29;20171;-77
2023/06/30 07:24:43;;;;;;;5.53;2.30;;;25.60;79.20;;;;;;4943920;29;20266;-81
2023/06/30 07:27:09;;;;;;;1.50;1.40;;;26.00;73.20;;;;;;4923668;29;20219;-78
2023/06/30 07:29:35;;;;;;;4.40;1.60;;;26.60;69.60;;;;;;4947112;29;20194;-81
2023/06/30 07:32:00;;;;;;;2.00;1.50;;;26.70;68.00;;;;;;4935791;28;20496;-81
2023/06/30 07:34:27;;;;;;;1.87;1.57;;;26.40;64.10;;;;;;4945075;29;20206;-82
2023/06/30 07:36:53;;;;;;;4.47;1.47;;;26.30;64.40;;;;;;4944521;29;20278;-81
2023/06/30 07:39:19;;;;;;;1.40;1.30;;;27.10;62.60;;;;;;4947819;29;20509;-82
2023/06/30 07:41:44;;;;;;;2.00;1.60;;;26.50;59.30;;;;;;4945595;28;20199;-84
2023/06/30 07:44:11;;;;;;;1.33;1.33;;;26.50;59.90;;;;;;4946058;29;20198;-81
2023/06/30 07:46:37;;;;;;;1.67;1.13;;;27.00;58.80;;;;;;4949730;28;20175;-79
2023/06/30 07:49:03;;;;;;;1.30;1.20;;;27.80;56.70;;;;;;4944833;29;20525;-82
2023/06/30 07:51:30;;;;;;;2.23;1.53;;;27.90;56.10;;;;;;4943230;28;20454;-82
2023/06/30 07:53:56;;;;;;;1.50;1.47;;;28.20;55.80;;;;;;4947930;29;20525;-80
2023/06/30 07:56:22;;;;;;;2.03;1.90;;;28.10;55.00;;;;;;4946660;28;21593;-83
2023/06/30 07:58:47;;;;;;;1.40;1.40;;;28.60;54.60;;;;;;4928852;29;20445;-79
2023/06/30 08:01:13;;;;;;;1.73;1.63;;;28.40;54.40;;;;;;4945285;28;20194;-83
2023/06/30 08:03:39;;;;;;;1.27;1.17;;;28.80;54.50;;;;;;4946146;29;20261;-82
2023/06/30 08:06:05;;;;;;;1.07;1.00;;;29.20;53.90;;;;;;4945188;29;20472;-79
2023/06/30 08:08:31;;;;;;;2.33;1.10;;;29.20;52.10;;;;;;4946741;29;20446;-80
2023/06/30 08:10:57;;;;;;;1.20;1.20;;;28.80;51.60;;;;;;4946094;28;20918;-80
2023/06/30 08:13:23;;;;;;;1.27;1.20;;;29.30;51.70;;;;;;4946564;28;20475;-79
2023/06/30 08:15:49;;;;;;;1.10;1.10;;;29.20;50.50;;;;;;4944533;28;20452;-79
2023/06/30 08:18:14;;;;;;;1.90;1.20;;;29.30;51.00;;;;;;4958764;29;20508;-80
2023/06/30 08:20:40;;;;;;;1.40;1.30;;;29.70;49.90;;;;;;4957885;28;20509;-83
2023/06/30 08:23:05;;;;;;;2.17;2.00;;;29.80;49.60;;;;;;4954984;29;20265;-79
2023/06/30 08:25:31;;;;;;;3.03;1.70;;;30.40;48.90;;;;;;4929382;29;20225;-79
2023/06/30 08:27:57;;;;;;;2.00;1.37;;;30.00;48.30;;;;;;4947540;29;20170;-81
2023/06/30 08:30:23;;;;;;;2.40;2.30;;;29.60;48.30;;;;;;4927987;29;21689;-79
2023/06/30 08:32:48;;;;;;;1.27;1.27;;;29.80;48.20;;;;;;4945398;29;20430;-79
2023/06/30 08:35:14;;;;;;;1.17;1.10;;;30.70;47.90;;;;;;4943253;28;20277;-82
2023/06/30 08:37:40;;;;;;;1.60;1.60;;;30.70;47.90;;;;;;4945648;29;20178;-81
2023/06/30 08:40:06;;;;;;;1.73;1.40;;;31.10;47.80;;;;;;4944834;28;20993;-79
2023/06/30 08:42:36;;;;;;;1.20;1.20;;;31.10;47.50;;;;;;4945104;29;20266;-80
2023/06/30 08:45:03;;;;;;;1.60;1.50;;;31.80;46.30;;;;;;4942451;28;20451;-80
2023/06/30 08:47:32;;;;;;;1.37;1.27;;;32.10;45.60;;;;;;4944477;29;20964;-78
2023/06/30 08:49:59;;;;;;;1.80;1.07;;;32.40;45.30;;;;;;4942859;28;20517;-80
2023/06/30 08:52:25;;;;;;;1.13;1.10;;;31.90;45.30;;;;;;4945031;29;20422;-81
2023/06/30 08:54:51;;;;;;;3.77;1.60;;;31.90;45.40;;;;;;4942739;28;20469;-80
2023/06/30 08:57:17;;;;;;;4.00;1.27;;;32.20;45.70;;;;;;4944868;29;20430;-81
2023/06/30 08:59:43;;;;;;;4.23;1.10;;;32.00;44.90;;;;;;4942377;29;20282;-81
2023/06/30 09:02:13;;;;;;;3.60;1.80;;;31.80;45.40;;;;;;4943948;29;20427;-80
2023/06/30 09:04:40;;;;;;;1.10;1.10;;;32.30;45.10;;;;;;4941656;28;20450;-82
2023/06/30 09:07:18;;;;;;;1.23;1.20;;;32.60;44.20;;;;;;4944780;29;20501;-80
2023/06/30 09:09:45;;;;;;;1.30;1.30;;;32.80;44.30;;;;;;4941802;28;20465;-79
2023/06/30 09:12:12;;;;;;;1.27;1.20;;;33.40;44.30;;;;;;4944348;29;21013;-83
2023/06/30 09:14:44;;;;;;;2.40;1.10;;;33.20;44.20;;;;;;4941744;28;20541;-82
2023/06/30 09:17:09;;;;;;;1.47;1.37;;;33.00;43.80;;;;;;4943646;29;20433;-81
2023/06/30 09:19:35;;;;;;;1.43;1.43;;;31.90;42.80;;;;;;4942493;29;20434;-83
2023/06/30 09:22:02;;;;;;;3.57;3.43;;;31.80;42.90;;;;;;4945693;29;20629;-81
2023/06/30 09:24:28;;;;;;;1.30;1.30;;;31.90;43.20;;;;;;4942099;29;20430;-82
2023/06/30 09:26:54;;;;;;;1.27;1.27;;;32.60;42.80;;;;;;4925811;29;21934;-81
2023/06/30 09:29:23;;;;;;;1.50;1.50;;;32.80;42.10;;;;;;4942755;28;20226;-78
2023/06/30 09:31:52;;;;;;;1.47;1.37;;;33.40;40.90;;;;;;4943402;29;20257;-83
2023/06/30 09:34:22;;;;;;;2.43;2.33;;;33.20;41.30;;;;;;4941820;28;20532;-81
2023/06/30 09:36:52;;;;;;;1.30;1.20;;;34.00;40.80;;;;;;4944120;29;20583;-83
2023/06/30 09:39:18;;;;;;;1.70;1.60;;;34.40;40.90;;;;;;4941357;28;20437;-81
2023/06/30 09:41:48;;;;;;;1.40;1.40;;;34.60;40.40;;;;;;4942120;29;21252;-81
2023/06/30 09:44:17;;;;;;;1.70;1.60;;;34.00;40.10;;;;;;4936832;28;21091;-81
2023/06/30 09:46:49;;;;;;;1.50;1.50;;;34.00;40.20;;;;;;4941363;29;20457;-81
2023/06/30 09:49:30;;;;;;;1.13;1.03;;;34.00;40.30;;;;;;4941674;29;20987;-81
2023/06/30 09:51:57;;;;;;;1.13;1.13;;;34.30;40.40;;;;;;4942113;29;20927;-83
2023/06/30 09:54:26;;;;;;;1.23;1.23;;;34.40;40.10;;;;;;4942621;28;20468;-82
2023/06/30 09:56:59;;;;;;;1.40;1.40;;;34.40;40.00;;;;;;4927030;29;20760;-82
2023/06/30 09:59:25;;;;;;;2.20;1.50;;;34.30;40.10;;;;;;4941631;28;20446;-81
2023/06/30 10:01:54;;;;;;;1.33;1.20;;;34.10;39.90;;;;;;4943095;29;20430;-82
2023/06/30 10:04:20;;;;;;;1.40;1.03;;;34.40;40.00;;;;;;4942419;29;20450;-82
2023/06/30 10:06:47;;;;;;;1.10;1.10;;;34.80;40.30;;;;;;4943172;29;20424;-80
2023/06/30 10:09:15;;;;;;;1.43;1.33;;;34.60;39.20;;;;;;4941116;28;20457;-80
2023/06/30 10:11:43;;;;;;;1.30;1.30;;;33.00;39.60;;;;;;4943455;29;20985;-82
2023/06/30 10:14:10;;;;;;;1.90;1.50;;;32.50;40.40;;;;;;4941440;28;20552;-82
2023/06/30 10:16:36;;;;;;;1.50;1.50;;;32.20;40.60;;;;;;4943074;29;20450;-81
2023/06/30 10:19:05;;;;;;;2.60;1.60;;;31.60;41.10;;;;;;4941593;28;20438;-80
2023/06/30 10:21:31;;;;;;;1.50;1.40;;;31.40;41.60;;;;;;4943246;29;20445;-80
2023/06/30 10:23:57;;;;;;;1.67;1.50;;;31.10;41.60;;;;;;4942301;29;20449;-82
2023/06/30 10:26:24;;;;;;;1.60;1.50;;;31.50;41.70;;;;;;4941515;28;20210;-81
2023/06/30 10:28:50;;;;;;;2.10;1.50;;;31.20;41.50;;;;;;4942915;29;20426;-81
2023/06/30 10:31:16;;;;;;;1.63;1.50;;;30.40;42.30;;;;;;4941430;29;20489;-78
2023/06/30 10:33:42;;;;;;;1.43;1.43;;;30.00;42.70;;;;;;4944751;29;20191;-82
2023/06/30 10:36:08;;;;;;;1.40;1.40;;;29.60;43.40;;;;;;4944582;28;20468;-85
2023/06/30 10:41:59;;;;;;;2.63;2.13;;;28.80;42.90;;;;;;4942509;29;20794;-83
2023/06/30 10:44:38;;;;;;;1.60;1.50;;;29.10;43.10;;;;;;4941594;28;20554;-83
2023/06/30 10:47:04;;;;;;;1.40;1.40;;;29.30;42.20;;;;;;4943764;29;20446;-84
2023/06/30 10:49:33;;;;;;;3.73;2.10;;;28.50;42.20;;;;;;4945442;28;20726;-84
2023/06/30 10:52:31;;;;;;;1.80;1.80;;;28.20;43.80;;;;;;4932486;29;20423;-82
2023/06/30 10:55:04;;;;;;;1.77;1.67;;;28.30;43.80;;;;;;4943084;29;20473;-84
2023/06/30 10:57:35;;;;;;;1.80;1.77;;;28.40;43.90;;;;;;4943769;29;20426;-81
2023/06/30 11:00:11;;;;;;;1.90;1.90;;;29.00;43.90;;;;;;4944035;28;20442;-80
2023/06/30 11:02:47;;;;;;;1.63;1.53;;;29.60;42.90;;;;;;4943546;29;20433;-81
2023/06/30 11:05:26;;;;;;;1.60;1.50;;;30.50;41.70;;;;;;4942667;29;20418;-81
2023/06/30 11:08:21;;;;;;;2.47;2.37;;;30.90;41.30;;;;;;4939452;28;20456;-81
2023/06/30 11:10:47;;;;;;;2.57;2.47;;;30.60;41.60;;;;;;4941201;29;20525;-82
2023/06/30 11:13:14;;;;;;;4.27;4.07;;;30.00;42.20;;;;;;4938922;29;20521;-78
2023/06/30 11:15:42;;;;;;;2.60;2.40;;;29.30;42.40;;;;;;4925604;29;20520;-76
2023/06/30 11:18:18;;;;;;;1.90;1.90;;;28.90;42.80;;;;;;4940765;29;20548;-79
2023/06/30 11:20:59;;;;;;;2.50;2.30;;;28.70;43.30;;;;;;4918048;29;20421;-78
2023/06/30 11:23:27;;;;;;;3.13;2.30;;;28.60;43.60;;;;;;4940259;28;20969;-78
2023/06/30 11:25:56;;;;;;;2.00;1.90;;;28.70;43.80;;;;;;4918921;29;20552;-78
2023/06/30 11:28:25;;;;;;;2.70;2.20;;;28.70;43.70;;;;;;4939557;29;20464;-79
2023/06/30 11:31:00;;;;;;;2.40;2.30;;;28.50;42.90;;;;;;4945054;29;20430;-82
2023/06/30 11:33:25;;;;;;;3.63;1.80;;;28.40;43.80;;;;;;4943379;29;20450;-82
2023/06/30 11:35:59;;;;;;;3.43;2.30;;;28.10;44.20;;;;;;4946390;29;20955;-84
2023/06/30 11:38:25;;;;;;;3.53;3.33;;;27.80;45.20;;;;;;4939493;29;20299;-82
2023/06/30 11:40:50;;;;;;;1.90;1.80;;;27.60;44.80;;;;;;4947903;29;20430;-84
2023/06/30 11:43:17;;;;;;;3.50;2.10;;;27.80;43.70;;;;;;4950932;29;20505;-82
2023/06/30 11:45:43;;;;;;;3.60;1.50;;;28.40;43.30;;;;;;4941762;29;20183;-82
2023/06/30 11:48:11;;;;;;;3.17;3.07;;;28.50;43.10;;;;;;4924091;28;20513;-79
2023/06/30 11:50:37;;;;;;;2.33;2.20;;;28.70;43.10;;;;;;4944899;29;20525;-78
2023/06/30 11:53:03;;;;;;;20.20;18.70;;;29.20;43.10;;;;;;4948671;28;20525;-81
2023/06/30 11:55:28;;;;;;;2.60;2.50;;;29.80;42.80;;;;;;4926117;29;20233;-81
2023/06/30 11:57:54;;;;;;;2.87;1.60;;;30.80;42.40;;;;;;4944469;29;20187;-82
2023/06/30 12:00:22;;;;;;;1.90;1.80;;;32.00;42.70;;;;;;4948284;29;20269;-81
2023/06/30 12:02:50;;;;;;;2.63;2.63;;;33.20;41.50;;;;;;4946944;28;20488;-82
2023/06/30 12:05:17;;;;;;;1.77;1.77;;;33.40;40.70;;;;;;4948417;29;20430;-84
2023/06/30 12:07:44;;;;;;;1.90;1.80;;;32.10;40.70;;;;;;4946815;28;20458;-84
2023/06/30 12:10:11;;;;;;;3.27;3.07;;;30.60;42.00;;;;;;4948157;28;20819;-83
2023/06/30 12:12:37;;;;;;;3.50;2.27;;;30.00;42.40;;;;;;4946387;29;20984;-81
2023/06/30 12:15:05;;;;;;;2.97;2.67;;;29.00;42.20;;;;;;4944301;29;20490;-82
2023/06/30 12:17:39;;;;;;;2.10;2.00;;;28.80;43.20;;;;;;4948316;29;20904;-84
2023/06/30 12:20:06;;;;;;;3.37;2.40;;;29.30;42.90;;;;;;4947410;29;20979;-83
2023/06/30 12:22:35;;;;;;;3.10;2.30;;;29.30;42.90;;;;;;4946866;29;20426;-83
2023/06/30 12:25:02;;;;;;;3.03;2.83;;;29.00;43.20;;;;;;4945786;28;20450;-83
2023/06/30 12:27:27;;;;;;;2.27;2.17;;;28.80;42.90;;;;;;4948424;29;20513;-83
2023/06/30 12:29:55;;;;;;;3.23;2.47;;;28.60;43.30;;;;;;4946296;29;20829;-83
2023/06/30 12:32:27;;;;;;;1.67;1.57;;;29.00;43.30;;;;;;4949665;29;20190;-84
2023/06/30 12:35:02;;;;;;;1.80;1.80;;;29.90;42.30;;;;;;4949095;29;20529;-84
2023/06/30 12:37:29;;;;;;;2.50;2.17;;;30.50;42.20;;;;;;4948016;29;20438;-84
2023/06/30 12:39:58;;;;;;;1.97;1.83;;;30.70;42.50;;;;;;4947034;29;20735;-83
2023/06/30 12:42:28;;;;;;;2.97;2.77;;;31.30;41.90;;;;;;4944044;29;20476;-82
2023/06/30 12:44:54;;;;;;;5.23;2.83;;;32.10;41.50;;;;;;4949407;29;20953;-82
2023/06/30 12:47:20;;;;;;;2.23;2.10;;;31.50;40.90;;;;;;4930943;29;20438;-83
2023/06/30 12:49:46;;;;;;;1.93;1.93;;;30.50;42.30;;;;;;4945914;29;20449;-83
2023/06/30 12:52:12;;;;;;;1.80;1.80;;;30.60;42.00;;;;;;4945298;28;20208;-83
2023/06/30 12:54:37;;;;;;;1.63;1.63;;;31.60;41.60;;;;;;4946283;29;20797;-84
2023/06/30 12:57:03;;;;;;;1.73;1.73;;;32.40;40.70;;;;;;4931880;29;20186;-82
2023/06/30 12:59:29;;;;;;;2.03;1.93;;;33.00;39.80;;;;;;4948939;28;21024;-83
2023/06/30 13:01:55;;;;;;;1.87;1.87;;;32.70;39.60;;;;;;4950111;29;20457;-83
2023/06/30 13:04:21;;;;;;;1.43;1.43;;;32.60;40.10;;;;;;4948573;29;20430;-83
2023/06/30 13:06:46;;;;;;;2.10;2.00;;;32.60;40.10;;;;;;4948439;28;20232;-85
2023/06/30 13:09:12;;;;;;;4.23;3.83;;;31.60;40.30;;;;;;4950283;29;20219;-84
2023/06/30 13:11:37;;;;;;;3.23;2.00;;;30.90;40.10;;;;;;4938870;28;20335;-84
2023/06/30 13:14:04;;;;;;;2.20;2.10;;;31.20;40.90;;;;;;4949471;29;20617;-82
2023/06/30 13:16:46;;;;;;;2.03;1.93;;;30.80;40.20;;;;;;4943890;28;20225;-82
2023/06/30 13:19:12;;;;;;;2.30;2.30;;;30.50;40.80;;;;;;4948766;29;20434;-83
2023/06/30 13:21:38;;;;;;;1.80;1.80;;;30.80;41.10;;;;;;4943543;28;20516;-81
2023/06/30 13:24:04;;;;;;;2.10;1.97;;;31.80;41.10;;;;;;4945781;29;20942;-83
2023/06/30 13:26:29;;;;;;;2.50;2.40;;;32.50;39.90;;;;;;4942182;28;20222;-83
2023/06/30 13:28:55;;;;;;;1.87;1.77;;;33.00;40.00;;;;;;4944515;29;20442;-83
2023/06/30 13:31:21;;;;;;;2.30;2.20;;;33.10;39.90;;;;;;4943607;29;20207;-82
2023/06/30 13:33:46;;;;;;;1.70;1.70;;;33.40;39.20;;;;;;4946034;29;20179;-80
2023/06/30 13:36:14;;;;;;;2.00;1.90;;;32.50;39.00;;;;;;4942462;28;20230;-84
2023/06/30 13:38:42;;;;;;;2.13;2.13;;;32.30;39.60;;;;;;4945971;29;20241;-85
2023/06/30 13:41:10;;;;;;;2.67;2.53;;;32.10;39.80;;;;;;4942641;28;20458;-81
2023/06/30 13:43:39;;;;;;;2.60;2.50;;;31.00;40.60;;;;;;4925753;29;20422;-80
2023/06/30 13:46:05;;;;;;;2.43;2.43;;;30.50;41.60;;;;;;4942530;29;20438;-79
2023/06/30 13:48:31;;;;;;;2.03;2.03;;;30.70;42.00;;;;;;4926299;29;20554;-76
2023/06/30 13:50:57;;;;;;;2.80;2.60;;;31.00;40.90;;;;;;4943907;29;20517;-80
2023/06/30 13:53:23;;;;;;;2.80;2.67;;;30.90;40.60;;;;;;4940841;29;20680;-80
2023/06/30 13:55:48;;;;;;;2.77;2.67;;;31.20;41.40;;;;;;4942755;29;20198;-81
2023/06/30 13:58:14;;;;;;;3.20;2.97;;;31.50;40.50;;;;;;4924158;29;20190;-82
2023/06/30 14:00:39;;;;;;;2.33;2.30;;;31.50;40.70;;;;;;4941992;29;20213;-83
2023/06/30 14:03:05;;;;;;;2.80;2.60;;;32.20;40.70;;;;;;4941309;29;20210;-81
2023/06/30 14:05:30;;;;;;;2.10;2.10;;;32.60;40.10;;;;;;4943640;29;20503;-82
2023/06/30 14:07:56;;;;;;;1.93;1.93;;;32.50;40.60;;;;;;4946048;28;20298;-81
2023/06/30 14:10:22;;;;;;;2.13;2.13;;;32.80;40.80;;;;;;4947395;29;20202;-83
2023/06/30 14:12:47;;;;;;;2.10;2.10;;;33.10;40.00;;;;;;4945722;28;20201;-84
2023/06/30 14:15:13;;;;;;;2.20;2.10;;;33.20;39.80;;;;;;4943989;29;20218;-82
2023/06/30 14:17:39;;;;;;;2.03;1.93;;;32.80;39.80;;;;;;4941950;29;20197;-81
2023/06/30 14:20:05;;;;;;;1.97;1.87;;;32.30;39.80;;;;;;4944534;29;20254;-81
2023/06/30 14:22:30;;;;;;;2.53;2.43;;;32.40;39.90;;;;;;4940886;28;20213;-83
2023/06/30 14:24:56;;;;;;;2.30;2.30;;;32.30;40.10;;;;;;4942682;29;20486;-84
2023/06/30 14:27:21;;;;;;;2.97;2.50;;;32.20;40.00;;;;;;4940591;28;20222;-84
2023/06/30 14:29:47;;;;;;;4.67;3.27;;;32.00;40.30;;;;;;4940072;28;20797;-82
2023/06/30 14:32:12;;;;;;;2.37;2.17;;;31.50;40.40;;;;;;4942598;29;20629;-81
2023/06/30 14:34:40;;;;;;;2.70;2.70;;;30.90;40.50;;;;;;4942992;29;20679;-81
2023/06/30 14:37:06;;;;;;;2.63;2.63;;;30.10;41.40;;;;;;4931797;29;20210;-81
2023/06/30 14:39:31;;;;;;;2.67;2.53;;;29.80;42.00;;;;;;4926662;29;20458;-79
2023/06/30 14:41:57;;;;;;;2.60;2.40;;;29.70;42.30;;;;;;4945152;29;20240;-80
2023/06/30 14:44:25;;;;;;;2.50;2.40;;;30.20;42.00;;;;;;4936327;28;20186;-80
2023/06/30 14:46:51;;;;;;;2.10;2.10;;;30.40;42.10;;;;;;4943642;28;20175;-80
2023/06/30 14:49:16;;;;;;;3.17;3.03;;;30.30;41.60;;;;;;4947090;28;20461;-81
2023/06/30 14:51:42;;;;;;;3.90;2.43;;;29.90;42.80;;;;;;4949647;29;20202;-79
2023/06/30 14:54:08;;;;;;;3.60;2.60;;;29.70;42.40;;;;;;4950229;29;20285;-80
2023/06/30 14:56:33;;;;;;;3.10;2.90;;;29.10;42.40;;;;;;4950022;29;20956;-79
2023/06/30 14:58:59;;;;;;;5.40;2.90;;;28.80;42.50;;;;;;4946477;29;20175;-79
2023/06/30 15:01:24;;;;;;;3.37;3.17;;;28.60;43.10;;;;;;4942444;28;20740;-82
2023/06/30 15:03:50;;;;;;;2.63;2.53;;;28.30;43.20;;;;;;4942337;29;20218;-78
2023/06/30 15:06:15;;;;;;;3.40;2.40;;;28.10;43.40;;;;;;4942052;28;20926;-81
2023/06/30 15:08:41;;;;;;;4.47;2.73;;;27.90;43.20;;;;;;4942355;28;20901;-82
2023/06/30 15:11:07;;;;;;;2.60;2.50;;;27.70;43.70;;;;;;4925581;29;20199;-84
2023/06/30 15:13:33;;;;;;;2.60;2.50;;;27.60;44.20;;;;;;4925798;29;20441;-82
2023/06/30 15:15:58;;;;;;;3.47;2.57;;;27.50;43.40;;;;;;4939855;28;20573;-80
2023/06/30 15:18:24;;;;;;;2.20;2.10;;;27.10;44.00;;;;;;4926283;29;20662;-81
2023/06/30 15:20:50;;;;;;;2.60;2.40;;;27.00;44.10;;;;;;4938855;28;20197;-81
2023/06/30 15:23:15;;;;;;;2.47;2.43;;;26.90;42.60;;;;;;4940744;28;20193;-82
2023/06/30 15:25:41;;;;;;;2.50;2.30;;;26.70;43.60;;;;;;4943219;28;20269;-80
2023/06/30 15:28:06;;;;;;;2.20;2.10;;;26.60;44.20;;;;;;4946483;29;20189;-81
2023/06/30 15:30:32;;;;;;;2.87;2.77;;;26.40;44.50;;;;;;4945709;28;20198;-80
2023/06/30 15:32:58;;;;;;;2.50;2.30;;;26.70;45.10;;;;;;4924840;29;20777;-83
2023/06/30 15:35:26;;;;;;;2.67;2.47;;;26.50;44.30;;;;;;4946099;29;20214;-81
2023/06/30 15:37:52;;;;;;;3.20;3.10;;;26.50;44.70;;;;;;4924794;29;20286;-79
2023/06/30 15:40:18;;;;;;;2.67;2.67;;;26.50;44.30;;;;;;4927894;29;21044;-80
2023/06/30 15:42:43;;;;;;;2.90;2.50;;;26.40;44.40;;;;;;4940545;28;20549;-82
2023/06/30 15:45:09;;;;;;;2.17;2.07;;;26.40;44.50;;;;;;4945677;29;20196;-81
2023/06/30 15:47:35;;;;;;;2.37;2.20;;;26.30;44.90;;;;;;4943851;28;20230;-82
2023/06/30 15:50:01;;;;;;;3.27;3.07;;;26.10;45.10;;;;;;4928556;29;20782;-83
2023/06/30 15:52:26;;;;;;;2.40;2.30;;;26.20;44.90;;;;;;4943075;28;20461;-80
2023/06/30 15:55:12;;;;;;;2.13;2.13;;;26.30;45.10;;;;;;4941509;28;20302;-81
2023/06/30 15:57:39;;;;;;;2.40;2.30;;;26.20;44.30;;;;;;4945732;29;20195;-78